createdAt,value
2022-11-15T00:01:39.465Z,9.45
2022-11-15T00:04:25.367Z,7.60
2022-11-15T00:07:17.880Z,9.32
2022-11-15T00:10:13.213Z,12.23
2022-11-15T00:12:58.945Z,7.80
2022-11-15T00:15:45.102Z,12.38
2022-11-15T00:18:31.664Z,14.00
2022-11-15T00:21:18.239Z,9.23
2022-11-15T00:24:04.330Z,11.98
2022-11-15T00:26:49.945Z,14.05
2022-11-15T00:29:35.888Z,14.80
2022-11-15T00:32:21.894Z,10.65
2022-11-15T00:35:08.065Z,15.63
2022-11-15T00:37:54.020Z,12.25
2022-11-15T00:40:39.797Z,8.18
2022-11-15T00:43:25.864Z,5.97
2022-11-15T00:46:11.896Z,11.27
2022-11-15T00:48:57.961Z,13.02
2022-11-15T00:51:43.882Z,19.70
2022-11-15T00:54:29.740Z,14.90
2022-11-15T00:57:15.616Z,22.67
2022-11-15T01:00:01.536Z,15.07
2022-11-15T01:02:47.720Z,17.52
2022-11-15T01:05:33.702Z,6.28
2022-11-15T01:08:19.655Z,8.77
2022-11-15T01:11:11.844Z,20.45
2022-11-15T01:13:57.716Z,11.75
2022-11-15T01:16:43.471Z,18.15
2022-11-15T01:19:29.505Z,18.08
2022-11-15T01:22:15.493Z,12.27
2022-11-15T01:25:01.527Z,5.97
2022-11-15T01:27:47.446Z,16.50
2022-11-15T01:30:33.381Z,7.25
2022-11-15T01:33:19.580Z,12.30
2022-11-15T01:36:12.377Z,22.98
2022-11-15T01:38:59.985Z,4.43
2022-11-15T01:41:45.689Z,12.80
2022-11-15T01:44:40.778Z,13.02
2022-11-15T01:47:33.745Z,10.88
2022-11-15T01:50:25.624Z,6.30
2022-11-15T01:53:11.763Z,10.30
2022-11-15T01:55:57.636Z,13.48
2022-11-15T01:58:44.937Z,14.90
2022-11-15T02:01:33.339Z,16.95
2022-11-15T02:04:28.687Z,9.90
2022-11-15T02:07:18.349Z,16.48
2022-11-15T02:10:18.539Z,19.63
2022-11-15T02:13:04.402Z,10.13
2022-11-15T02:16:28.683Z,18.13
2022-11-15T02:19:32.189Z,11.32
2022-11-15T02:22:29.915Z,7.75
2022-11-15T02:25:48.432Z,14.30
2022-11-15T02:28:48.551Z,11.63
2022-11-15T02:31:56.063Z,13.27
2022-11-15T02:35:06.685Z,5.00
2022-11-15T02:37:59.609Z,8.73
2022-11-15T02:41:03.670Z,9.35
2022-11-15T02:44:07.945Z,19.35
2022-11-15T02:47:16.096Z,23.05
2022-11-15T02:50:10.928Z,21.48
2022-11-15T02:52:57.593Z,10.63
2022-11-15T02:55:48.306Z,10.70
2022-11-15T02:59:01.867Z,17.85
2022-11-15T03:02:32.169Z,15.75
2022-11-15T03:05:24.022Z,18.13
2022-11-15T03:08:24.765Z,7.70
2022-11-15T03:11:11.347Z,16.38
2022-11-15T03:14:21.763Z,16.80
2022-11-15T03:17:20.248Z,20.55
2022-11-15T03:20:08.893Z,12.93
2022-11-15T03:22:57.787Z,15.98
2022-11-15T03:25:48.248Z,12.95
2022-11-15T03:28:42.009Z,14.63
2022-11-15T03:31:50.390Z,18.67
2022-11-15T03:34:48.457Z,25.75
2022-11-15T03:37:57.175Z,15.77
2022-11-15T03:40:46.825Z,16.60
2022-11-15T03:43:58.364Z,20.77
2022-11-15T03:47:13.029Z,18.42
2022-11-15T03:50:05.623Z,11.02
2022-11-15T03:52:51.842Z,12.80
2022-11-15T03:55:37.453Z,25.77
2022-11-15T03:58:23.308Z,19.45
2022-11-15T04:01:09.196Z,12.32
2022-11-15T04:03:54.965Z,11.73
2022-11-15T04:06:41.233Z,16.55
2022-11-15T04:09:27.126Z,15.52
2022-11-15T04:12:13.114Z,23.90
2022-11-15T04:15:09.264Z,12.70
2022-11-15T04:17:57.077Z,16.88
2022-11-15T04:21:01.721Z,15.25
2022-11-15T04:24:06.236Z,23.98
2022-11-15T04:26:51.985Z,21.80
2022-11-15T04:29:37.978Z,22.73
2022-11-15T04:32:23.928Z,17.33
2022-11-15T04:35:10.155Z,21.40
2022-11-15T04:37:57.226Z,12.30
2022-11-15T04:40:42.804Z,9.57
2022-11-15T04:43:29.574Z,20.63
2022-11-15T04:46:15.783Z,33.43
2022-11-15T04:49:01.695Z,28.35
2022-11-15T04:51:47.585Z,10.95
2022-11-15T04:54:33.570Z,20.17
2022-11-15T04:57:19.541Z,18.10
2022-11-15T05:00:08.200Z,17.83
2022-11-15T05:03:12.567Z,17.33
2022-11-15T05:05:59.570Z,24.80
2022-11-15T05:08:45.403Z,33.07
2022-11-15T05:11:31.325Z,25.27
2022-11-15T05:14:17.287Z,19.80
2022-11-15T05:17:03.206Z,18.00
2022-11-15T05:19:49.258Z,21.45
2022-11-15T05:22:35.150Z,28.55
2022-11-15T05:25:21.072Z,27.48
2022-11-15T05:28:06.969Z,17.75
2022-11-15T05:30:52.780Z,20.83
2022-11-15T05:33:40.605Z,14.93
2022-11-15T05:36:35.900Z,22.48
2022-11-15T05:39:21.890Z,20.20
2022-11-15T05:42:11.458Z,26.92
2022-11-15T05:44:58.077Z,20.20
2022-11-15T05:47:45.824Z,15.83
2022-11-15T05:50:32.032Z,29.83
2022-11-15T05:53:22.168Z,17.77
2022-11-15T05:56:09.850Z,16.05
2022-11-15T05:58:59.779Z,13.98
2022-11-15T06:01:46.398Z,18.55
2022-11-15T06:04:32.116Z,24.83
2022-11-15T06:07:18.162Z,18.02
2022-11-15T06:10:05.348Z,23.77
2022-11-15T06:13:01.813Z,29.50
2022-11-15T06:15:47.835Z,15.48
2022-11-15T06:18:35.481Z,16.40
2022-11-15T06:21:21.513Z,17.65
2022-11-15T06:24:07.871Z,19.40
2022-11-15T06:26:54.123Z,23.80
2022-11-15T06:29:40.166Z,21.08
2022-11-15T06:32:26.132Z,19.23
2022-11-15T06:35:12.146Z,17.50
2022-11-15T06:38:04.441Z,14.57
2022-11-15T06:40:50.057Z,18.13
2022-11-15T06:43:36.981Z,11.57
2022-11-15T06:46:22.612Z,10.43
2022-11-15T06:49:09.901Z,14.57
2022-11-15T06:51:55.748Z,21.65
2022-11-15T06:54:41.640Z,24.00
2022-11-15T06:57:27.657Z,25.48
2022-11-15T07:00:14.133Z,19.48
2022-11-15T07:03:03.643Z,20.50
2022-11-15T07:06:01.404Z,14.32
2022-11-15T07:08:51.135Z,23.08
2022-11-15T07:11:37.066Z,28.40
2022-11-15T07:14:23.096Z,16.25
2022-11-15T07:17:10.281Z,10.40
2022-11-15T07:19:56.018Z,14.50
2022-11-15T07:22:42.991Z,15.43
2022-11-15T07:25:28.969Z,18.13
2022-11-15T07:28:14.869Z,16.23
2022-11-15T07:31:04.627Z,21.73
2022-11-15T07:33:50.578Z,19.83
2022-11-15T07:36:36.681Z,17.15
2022-11-15T07:39:22.719Z,9.70
2022-11-15T07:42:27.139Z,18.13
2022-11-15T07:45:13.092Z,22.58
2022-11-15T07:47:59.513Z,20.05
2022-11-15T07:50:45.673Z,15.35
2022-11-15T07:53:31.976Z,16.90
2022-11-15T07:56:18.238Z,9.18
2022-11-15T07:59:04.109Z,13.73
2022-11-15T08:01:50.180Z,10.45
2022-11-15T08:04:36.462Z,8.32
2022-11-15T08:07:22.414Z,15.88
2022-11-15T08:10:08.963Z,9.35
2022-11-15T08:13:02.502Z,6.80
2022-11-15T08:15:51.124Z,10.50
2022-11-15T08:18:40.657Z,12.38
2022-11-15T08:21:26.547Z,17.27
2022-11-15T08:24:12.667Z,22.25
2022-11-15T08:26:58.653Z,3.05
2022-11-15T08:29:45.553Z,8.48
2022-11-15T08:32:32.272Z,8.47
2022-11-15T08:35:18.590Z,6.50
2022-11-15T08:38:04.365Z,8.25
2022-11-15T08:40:54.193Z,3.75
2022-11-15T08:43:39.919Z,7.60
2022-11-15T08:46:26.267Z,10.50
2022-11-15T08:49:12.393Z,10.20
2022-11-15T08:51:58.341Z,6.60
2022-11-15T08:54:44.277Z,4.18
2022-11-15T08:57:31.380Z,4.78
2022-11-15T09:00:17.721Z,5.78
2022-11-15T09:03:08.057Z,4.88
2022-11-15T09:05:58.553Z,5.70
2022-11-15T09:08:48.560Z,6.72
2022-11-15T09:11:34.762Z,3.80
2022-11-15T09:14:20.478Z,12.00
2022-11-15T09:17:09.730Z,5.93
2022-11-15T09:19:55.689Z,4.00
2022-11-15T09:22:41.760Z,5.88
2022-11-15T09:25:28.251Z,3.67
2022-11-15T09:28:13.968Z,3.50
2022-11-15T09:31:01.095Z,3.40
2022-11-15T09:33:46.926Z,1.30
2022-11-15T09:36:32.984Z,2.88
2022-11-15T09:39:19.286Z,3.35
2022-11-15T09:42:20.129Z,3.13
2022-11-15T09:45:37.636Z,2.38
2022-11-15T09:48:38.240Z,2.65
2022-11-15T09:51:47.455Z,4.97
2022-11-15T09:57:16.314Z,0.60
2022-11-15T10:00:07.714Z,6.07
2022-11-15T10:03:05.363Z,6.30
2022-11-15T10:05:40.336Z,1.92
2022-11-15T10:08:17.647Z,3.03
2022-11-15T10:11:00.545Z,2.78
2022-11-15T10:13:42.523Z,1.95
2022-11-15T10:16:36.024Z,5.57
2022-11-15T10:19:18.261Z,6.32
2022-11-15T10:21:54.469Z,7.90
2022-11-15T10:24:29.045Z,6.03
2022-11-15T10:26:57.486Z,2.45
2022-11-15T10:29:27.089Z,2.55
2022-11-15T10:31:54.888Z,2.00
2022-11-15T10:34:24.065Z,3.80
2022-11-15T10:37:02.943Z,2.78
2022-11-15T10:39:30.899Z,2.53
2022-11-15T10:41:58.365Z,4.28
2022-11-15T10:44:32.285Z,3.03
2022-11-15T10:46:59.474Z,5.03
2022-11-15T10:49:31.496Z,0.90
2022-11-15T10:52:02.387Z,2.97
2022-11-15T10:54:40.192Z,2.10
2022-11-15T10:57:13.707Z,2.45
2022-11-15T11:00:04.879Z,3.05
2022-11-15T11:02:43.169Z,6.82
2022-11-15T11:05:29.080Z,8.60
2022-11-15T11:08:03.177Z,5.30
2022-11-15T11:11:02.028Z,4.28
2022-11-15T11:16:14.604Z,7.07
2022-11-15T11:19:02.704Z,6.30
2022-11-15T11:21:55.178Z,3.92
2022-11-15T11:24:27.048Z,4.72
2022-11-15T11:27:09.622Z,3.97
2022-11-15T11:29:57.129Z,3.60
2022-11-15T11:32:34.169Z,4.80
2022-11-15T11:35:10.180Z,4.90
2022-11-15T11:38:06.516Z,2.00
2022-11-15T11:40:40.843Z,3.33
2022-11-15T11:43:35.654Z,4.00
2022-11-15T11:46:33.897Z,8.30
2022-11-15T11:49:16.272Z,9.52
2022-11-15T11:52:15.766Z,2.05
2022-11-15T11:55:02.817Z,1.70
2022-11-15T11:57:46.568Z,3.45
2022-11-15T12:00:19.423Z,9.20
2022-11-15T12:03:04.245Z,1.17
2022-11-15T12:05:52.519Z,3.78
2022-11-15T12:08:48.114Z,3.40
2022-11-15T12:11:51.855Z,2.33
2022-11-15T12:14:34.089Z,1.77
2022-11-15T12:17:01.647Z,3.95
2022-11-15T12:19:30.903Z,5.55
2022-11-15T12:22:14.658Z,3.13
2022-11-15T12:24:53.924Z,10.27
2022-11-15T12:27:41.577Z,4.93
2022-11-15T12:30:21.024Z,6.90
2022-11-15T12:32:58.079Z,6.40
2022-11-15T12:35:36.176Z,14.05
2022-11-15T12:38:03.740Z,8.15
2022-11-15T12:41:14.155Z,11.80
2022-11-15T12:43:43.345Z,18.85
2022-11-15T12:46:20.474Z,10.73
2022-11-15T12:49:00.198Z,8.30
2022-11-15T12:51:49.439Z,2.97
2022-11-15T12:54:22.597Z,3.90
2022-11-15T12:57:04.897Z,6.15
2022-11-15T13:00:13.602Z,9.43
2022-11-15T13:02:46.236Z,0.82
2022-11-15T13:05:16.224Z,9.55
2022-11-15T13:07:46.119Z,1.85
2022-11-15T13:10:13.406Z,3.65
2022-11-15T13:12:43.376Z,3.03
2022-11-15T13:15:13.708Z,7.72
2022-11-15T13:17:51.601Z,4.20
2022-11-15T13:20:20.863Z,7.63
2022-11-15T13:23:11.088Z,8.45
2022-11-15T13:26:09.411Z,0.65
2022-11-15T13:31:41.319Z,5.53
2022-11-15T13:34:50.123Z,3.75
2022-11-15T13:37:30.823Z,5.53
2022-11-15T13:40:34.005Z,5.03
2022-11-15T13:43:29.780Z,10.02
2022-11-15T13:46:16.643Z,26.45
2022-11-15T13:48:45.984Z,4.00
2022-11-15T13:51:33.980Z,11.15
2022-11-15T13:54:13.179Z,7.32
2022-11-15T13:56:48.002Z,15.40
2022-11-15T13:59:27.952Z,10.70
2022-11-15T14:01:57.537Z,10.35
2022-11-15T14:04:27.481Z,13.57
2022-11-15T14:06:58.151Z,8.10
2022-11-15T14:09:35.722Z,12.75
2022-11-15T14:12:22.644Z,9.50
2022-11-15T14:14:50.024Z,11.82
2022-11-15T14:17:36.720Z,13.73
2022-11-15T14:20:26.379Z,9.02
2022-11-15T14:22:59.077Z,12.10
2022-11-15T14:25:29.133Z,10.23
2022-11-15T14:28:11.674Z,10.43
2022-11-15T14:30:43.419Z,16.95
2022-11-15T14:33:26.194Z,8.25
2022-11-15T14:35:53.964Z,10.52
2022-11-15T14:38:21.276Z,11.40
2022-11-15T14:40:48.946Z,11.02
2022-11-15T14:43:16.257Z,10.82
2022-11-15T14:45:43.736Z,8.65
2022-11-15T14:48:11.259Z,6.32
2022-11-15T14:50:38.805Z,13.55
2022-11-15T14:53:07.037Z,22.80
2022-11-15T14:55:37.059Z,10.18
2022-11-15T14:58:05.914Z,11.50
2022-11-15T15:00:35.382Z,7.93
2022-11-15T15:03:04.858Z,15.38
2022-11-15T15:05:38.382Z,13.45
2022-11-15T15:08:06.816Z,15.65
2022-11-15T15:10:42.853Z,9.07
2022-11-15T15:13:22.010Z,11.13
2022-11-15T15:15:50.564Z,15.98
2022-11-15T15:18:18.996Z,13.35
2022-11-15T15:20:55.263Z,12.55
2022-11-15T15:23:23.967Z,17.98
2022-11-15T15:25:51.199Z,15.07
2022-11-15T15:28:18.480Z,26.20
2022-11-15T15:30:45.724Z,12.27
2022-11-15T15:33:13.149Z,12.00
2022-11-15T15:35:40.659Z,14.57
2022-11-15T15:38:10.056Z,11.35
2022-11-15T15:40:37.285Z,23.50
2022-11-15T15:43:04.578Z,20.35
2022-11-15T15:45:33.172Z,16.65
2022-11-15T15:48:00.868Z,15.07
2022-11-15T15:50:31.049Z,7.18
2022-11-15T15:53:00.977Z,13.60
2022-11-15T15:55:28.562Z,16.02
2022-11-15T15:57:56.062Z,12.75
2022-11-15T16:00:25.647Z,14.07
2022-11-15T16:02:54.618Z,12.50
2022-11-15T16:05:22.624Z,12.75
2022-11-15T16:07:50.312Z,16.73
2022-11-15T16:10:32.817Z,17.23
2022-11-15T16:13:00.099Z,11.25
2022-11-15T16:15:30.679Z,7.78
2022-11-15T16:18:01.508Z,17.90
2022-11-15T16:20:43.231Z,11.38
2022-11-15T16:23:12.536Z,25.55
2022-11-15T16:25:43.274Z,16.10
2022-11-15T16:28:22.791Z,18.23
2022-11-15T16:30:59.886Z,18.10
2022-11-15T16:33:27.100Z,15.35
2022-11-15T16:35:54.493Z,12.10
2022-11-15T16:38:21.896Z,18.08
2022-11-15T16:40:49.629Z,23.80
2022-11-15T16:43:17.060Z,11.13
2022-11-15T16:45:44.355Z,14.85
2022-11-15T16:48:25.466Z,16.80
2022-11-15T16:50:57.613Z,17.08
2022-11-15T16:53:26.308Z,19.50
2022-11-15T16:55:54.936Z,12.98
2022-11-15T16:58:22.348Z,9.30
2022-11-15T17:00:54.199Z,16.42
2022-11-15T17:03:23.096Z,22.63
2022-11-15T17:05:51.405Z,20.52
2022-11-15T17:08:21.664Z,8.95
2022-11-15T17:10:49.076Z,13.90
2022-11-15T17:13:16.280Z,19.52
2022-11-15T17:15:43.704Z,18.05
2022-11-15T17:18:15.422Z,16.17
2022-11-15T17:20:43.407Z,25.65
2022-11-15T17:23:15.002Z,16.77
2022-11-15T17:25:42.749Z,12.88
2022-11-15T17:28:10.661Z,21.05
2022-11-15T17:30:41.578Z,34.60
2022-11-15T17:33:09.104Z,27.58
2022-11-15T17:35:36.392Z,13.48
2022-11-15T17:38:03.593Z,16.58
2022-11-15T17:40:30.984Z,17.58
2022-11-15T17:42:58.206Z,12.52
2022-11-15T17:45:25.498Z,15.85
2022-11-15T17:47:53.719Z,26.05
2022-11-15T17:50:20.953Z,21.75
2022-11-15T17:52:48.164Z,23.02
2022-11-15T17:55:15.530Z,13.13
2022-11-15T17:57:44.251Z,11.65
2022-11-15T18:00:12.084Z,17.63
2022-11-15T18:02:39.300Z,18.60
2022-11-15T18:05:07.266Z,20.77
2022-11-15T18:07:34.593Z,11.82
2022-11-15T18:10:01.838Z,15.82
2022-11-15T18:12:29.165Z,18.08
2022-11-15T18:14:56.478Z,11.35
2022-11-15T18:17:24.081Z,11.77
2022-11-15T18:19:51.311Z,9.80
2022-11-15T18:22:20.443Z,7.80
2022-11-15T18:24:48.228Z,8.77
2022-11-15T18:27:15.540Z,26.48
2022-11-15T18:29:44.719Z,6.85
2022-11-15T18:32:14.987Z,6.85
2022-11-15T18:34:42.208Z,9.73
2022-11-15T18:37:09.606Z,15.27
2022-11-15T18:39:37.710Z,4.95
2022-11-15T18:42:05.149Z,12.60
2022-11-15T18:44:32.567Z,11.13
2022-11-15T18:46:59.905Z,7.60
2022-11-15T18:49:27.173Z,7.57
2022-11-15T18:51:54.947Z,11.40
2022-11-15T18:54:26.761Z,10.90
2022-11-15T18:56:56.956Z,10.75
2022-11-15T18:59:24.763Z,10.80
2022-11-15T19:01:52.201Z,4.25
2022-11-15T19:04:20.830Z,8.65
2022-11-15T19:06:49.694Z,13.32
2022-11-15T19:09:18.938Z,10.63
2022-11-15T19:11:48.153Z,7.57
2022-11-15T19:14:17.081Z,7.63
2022-11-15T19:16:50.321Z,8.65
2022-11-15T19:19:23.353Z,11.73
2022-11-15T19:21:51.768Z,10.07
2022-11-15T19:24:19.478Z,12.68
2022-11-15T19:26:47.213Z,12.88
2022-11-15T19:29:14.483Z,15.68
2022-11-15T19:31:42.113Z,9.82
2022-11-15T19:34:09.524Z,23.73
2022-11-15T19:36:41.924Z,11.70
2022-11-15T19:39:12.921Z,18.60
2022-11-15T19:41:42.519Z,22.60
2022-11-15T19:44:11.620Z,20.70
2022-11-15T19:46:39.443Z,10.95
2022-11-15T19:49:10.276Z,22.20
2022-11-15T19:51:38.883Z,31.25
2022-11-15T19:54:08.732Z,23.45
2022-11-15T19:56:36.867Z,16.60
2022-11-15T19:59:05.188Z,24.40
2022-11-15T20:01:38.887Z,18.17
2022-11-15T20:04:07.769Z,15.07
2022-11-15T20:06:40.458Z,24.88
2022-11-15T20:09:08.469Z,22.05
2022-11-15T20:11:37.910Z,19.13
2022-11-15T20:14:06.797Z,29.23
2022-11-15T20:16:34.038Z,15.90
2022-11-15T20:19:01.660Z,17.38
2022-11-15T20:21:29.020Z,20.48
2022-11-15T20:23:56.439Z,39.83
2022-11-15T20:26:23.988Z,13.40
2022-11-15T20:28:51.404Z,16.15
2022-11-15T20:31:19.015Z,19.20
2022-11-15T20:33:46.311Z,18.35
2022-11-15T20:36:15.610Z,25.15
2022-11-15T20:38:43.851Z,14.35
2022-11-15T20:41:14.644Z,17.55
2022-11-15T20:43:43.706Z,19.83
2022-11-15T20:46:12.534Z,18.60
2022-11-15T20:48:40.775Z,14.02
2022-11-15T20:51:14.379Z,21.42
2022-11-15T20:53:43.452Z,22.90
2022-11-15T20:56:19.575Z,13.68
2022-11-15T20:58:48.155Z,18.55
2022-11-15T21:01:17.700Z,20.42
2022-11-15T21:03:45.136Z,21.15
2022-11-15T21:06:12.388Z,32.63
2022-11-15T21:08:58.237Z,26.25
2022-11-15T21:11:44.078Z,22.15
2022-11-15T21:14:11.895Z,17.60
2022-11-15T21:16:39.181Z,15.70
2022-11-15T21:19:07.067Z,12.70
2022-11-15T21:21:35.759Z,19.48
2022-11-15T21:24:07.880Z,22.90
2022-11-15T21:26:36.300Z,25.98
2022-11-15T21:29:04.504Z,26.42
2022-11-15T21:31:32.192Z,21.90
2022-11-15T21:34:03.019Z,30.35
2022-11-15T21:36:30.848Z,25.60
2022-11-15T21:38:58.142Z,23.73
2022-11-15T21:41:25.369Z,20.52
2022-11-15T21:43:52.596Z,15.90
2022-11-15T21:46:19.825Z,23.05
2022-11-15T21:48:47.105Z,32.05
2022-11-15T21:51:14.311Z,19.45
2022-11-15T21:53:41.647Z,27.83
2022-11-15T21:56:09.348Z,15.93
2022-11-15T21:58:36.760Z,17.25
2022-11-15T22:01:23.093Z,25.15
2022-11-15T22:03:50.623Z,32.22
2022-11-15T22:06:18.458Z,19.80
2022-11-15T22:08:46.563Z,28.38
2022-11-15T22:11:14.892Z,23.27
2022-11-15T22:13:42.733Z,18.52
2022-11-15T22:16:10.815Z,18.77
2022-11-15T22:18:39.049Z,33.70
2022-11-15T22:21:10.435Z,30.35
2022-11-15T22:23:38.385Z,24.58
2022-11-15T22:26:06.616Z,32.53
2022-11-15T22:28:34.448Z,25.27
2022-11-15T22:31:02.101Z,16.08
2022-11-15T22:33:31.335Z,24.90
2022-11-15T22:35:59.206Z,19.23
2022-11-15T22:38:27.367Z,22.83
2022-11-15T22:40:55.620Z,14.68
2022-11-15T22:43:24.465Z,27.60
2022-11-15T22:45:51.677Z,19.33
2022-11-15T22:48:49.622Z,24.85
2022-11-15T22:51:17.153Z,19.33
2022-11-15T22:53:44.413Z,15.95
2022-11-15T22:56:15.076Z,13.23
2022-11-15T22:58:44.846Z,20.98
2022-11-15T23:01:21.578Z,21.55
2022-11-15T23:03:49.091Z,12.18
2022-11-15T23:06:16.916Z,8.88
2022-11-15T23:08:44.084Z,25.75
2022-11-15T23:11:30.233Z,14.18
2022-11-15T23:13:59.261Z,27.13
2022-11-15T23:16:34.343Z,15.82
2022-11-15T23:19:08.398Z,23.63
2022-11-15T23:22:00.298Z,18.80
2022-11-15T23:24:27.837Z,18.10
2022-11-15T23:26:57.789Z,15.95
2022-11-15T23:29:26.340Z,22.05
2022-11-15T23:32:13.197Z,10.48
2022-11-15T23:34:43.928Z,7.27
2022-11-15T23:37:13.347Z,12.55
2022-11-15T23:39:40.711Z,19.58
2022-11-15T23:42:09.484Z,20.67
2022-11-15T23:44:37.507Z,14.23
2022-11-15T23:47:04.809Z,8.25
2022-11-15T23:49:32.108Z,7.32
2022-11-15T23:51:59.433Z,11.52
2022-11-15T23:54:26.740Z,16.20
2022-11-15T23:56:54.054Z,8.65
2022-11-15T23:59:21.410Z,14.57
